Time;durP1;ratioP1;P1;durP2;ratioP2;P2;SDS_P1;SDS_P2;PMS_P1;PMS_P2;Temp;Humidity;BMP_temperature;BMP_pressure;BME280_temperature;BME280_humidity;BME280_pressure;Samples;Min_cycle;Max_cycle;Signal;HPM_P1;HPM_P2
2021/06/09 00:01:26;;;;;;;8.05;6.88;;;16.60;93.00;;;;;;6288636;22;20004;-94
2021/06/09 00:03:54;;;;;;;7.72;6.50;;;16.60;93.30;;;;;;6261361;22;20030;-93
2021/06/09 00:06:36;;;;;;;7.53;6.65;;;16.60;93.20;;;;;;6262998;22;20000;-93
2021/06/09 00:09:06;;;;;;;7.07;6.38;;;16.60;93.50;;;;;;6290708;22;20003;-93
2021/06/09 00:11:35;;;;;;;7.85;6.60;;;16.60;93.40;;;;;;6265465;22;20014;-94
2021/06/09 00:14:02;;;;;;;6.95;6.10;;;16.60;93.60;;;;;;6266432;22;20006;-94
2021/06/09 00:16:33;;;;;;;8.20;6.47;;;16.60;93.50;;;;;;6264961;22;20003;-94
2021/06/09 00:18:59;;;;;;;7.78;5.95;;;16.60;93.50;;;;;;6294123;22;20023;-94
2021/06/09 00:21:31;;;;;;;8.55;5.93;;;16.60;93.50;;;;;;6269530;22;20067;-93
2021/06/09 00:24:03;;;;;;;6.38;5.72;;;16.50;93.60;;;;;;6269112;22;20004;-94
2021/06/09 00:26:35;;;;;;;6.13;5.53;;;16.50;93.70;;;;;;6304931;22;19988;-93
2021/06/09 00:29:08;;;;;;;7.40;6.15;;;16.50;93.60;;;;;;6306215;22;20047;-92
2021/06/09 00:31:34;;;;;;;7.18;6.47;;;16.50;93.70;;;;;;6306254;22;20026;-91
2021/06/09 00:34:03;;;;;;;6.47;5.70;;;16.50;93.50;;;;;;6298079;22;20026;-93
2021/06/09 00:36:31;;;;;;;6.95;5.97;;;16.40;93.50;;;;;;6309790;22;20029;-93
2021/06/09 00:38:58;;;;;;;7.95;5.72;;;16.40;93.70;;;;;;6308666;22;20025;-92
2021/06/09 00:41:24;;;;;;;6.30;5.70;;;16.40;93.80;;;;;;6307519;22;20003;-93
2021/06/09 00:43:51;;;;;;;7.80;5.60;;;16.40;93.70;;;;;;6299377;22;20063;-93
2021/06/09 00:46:41;;;;;;;6.85;5.97;;;16.40;93.80;;;;;;6298503;22;20402;-93
2021/06/09 00:49:11;;;;;;;7.85;6.25;;;16.40;94.00;;;;;;6325770;22;20017;-94
2021/06/09 00:51:43;;;;;;;7.05;6.35;;;16.40;94.30;;;;;;6297777;22;20014;-94
2021/06/09 00:54:14;;;;;;;6.47;5.88;;;16.40;94.00;;;;;;6296715;22;19999;-94
2021/06/09 00:56:43;;;;;;;9.98;6.25;;;16.40;94.00;;;;;;6298722;22;20487;-93
2021/06/09 00:59:12;;;;;;;6.55;5.85;;;16.30;94.00;;;;;;6295409;22;19999;-93
2021/06/09 01:01:47;;;;;;;6.88;5.22;;;16.30;94.10;;;;;;6296090;22;20063;-93
2021/06/09 01:04:18;;;;;;;7.35;6.53;;;16.30;94.00;;;;;;6297980;22;20005;-93
2021/06/09 01:06:46;;;;;;;6.53;5.82;;;16.30;94.20;;;;;;6300461;22;20003;-94
2021/06/09 01:09:19;;;;;;;9.07;6.25;;;16.30;94.10;;;;;;6294816;22;19999;-93
2021/06/09 01:11:56;;;;;;;7.85;7.05;;;16.30;94.10;;;;;;6295036;22;20016;-94
2021/06/09 01:14:33;;;;;;;;;;;;;;;;;;;;;
2021/06/09 01:17:05;;;;;;;5.60;5.05;;;16.20;94.50;;;;;;6322195;22;20022;-93
2021/06/09 01:19:33;;;;;;;5.70;5.07;;;16.20;94.10;;;;;;6296067;22;20000;-94
2021/06/09 01:22:13;;;;;;;6.03;5.30;;;16.20;94.00;;;;;;6271900;22;20015;-94
2021/06/09 01:24:43;;;;;;;7.25;6.10;;;16.20;94.10;;;;;;6296955;22;20006;-94
2021/06/09 01:27:09;;;;;;;6.78;5.65;;;16.20;94.20;;;;;;6298093;22;20002;-93
2021/06/09 01:29:52;;;;;;;6.78;5.35;;;16.20;94.20;;;;;;6294737;22;19999;-94
2021/06/09 01:32:21;;;;;;;6.63;5.93;;;16.10;94.20;;;;;;6294969;22;20007;-94
2021/06/09 01:34:56;;;;;;;6.80;6.10;;;16.10;94.40;;;;;;6297796;22;20022;-93
2021/06/09 01:37:39;;;;;;;6.25;5.38;;;16.10;94.40;;;;;;6265708;22;19996;-93
2021/06/09 01:40:10;;;;;;;6.13;5.53;;;16.10;94.50;;;;;;6265819;22;20004;-93
2021/06/09 01:42:41;;;;;;;7.43;6.05;;;16.10;94.50;;;;;;6268499;22;19996;-93
2021/06/09 01:45:09;;;;;;;6.90;5.85;;;16.10;94.60;;;;;;6268965;22;19996;-94
2021/06/09 01:47:38;;;;;;;6.30;5.07;;;16.10;94.70;;;;;;6271939;22;20008;-92
2021/06/09 01:50:12;;;;;;;6.78;5.85;;;16.10;94.50;;;;;;6270779;22;20007;-93
2021/06/09 01:52:45;;;;;;;7.60;5.75;;;16.10;94.70;;;;;;6268156;22;20026;-93
2021/06/09 01:55:17;;;;;;;6.70;5.13;;;16.10;94.70;;;;;;6262850;22;20000;-94
2021/06/09 01:57:43;;;;;;;6.32;4.95;;;16.10;94.60;;;;;;6264425;22;20047;-94
2021/06/09 02:00:24;;;;;;;6.68;6.05;;;16.10;94.60;;;;;;6293781;22;20074;-93
2021/06/09 02:02:58;;;;;;;4.88;4.38;;;16.10;94.60;;;;;;6278722;22;19998;-93
2021/06/09 02:05:35;;;;;;;8.43;5.47;;;16.10;94.60;;;;;;6279789;22;19983;-94
2021/06/09 02:08:10;;;;;;;6.47;5.80;;;16.10;94.60;;;;;;6278807;22;20008;-93
2021/06/09 02:10:42;;;;;;;7.00;5.95;;;16.10;94.80;;;;;;6275229;22;20003;-93
2021/06/09 02:13:23;;;;;;;;;;;;;;;;;;;;;
2021/06/09 02:15:56;;;;;;;6.10;5.50;;;16.10;94.70;;;;;;6294726;22;20006;-93
2021/06/09 02:18:25;;;;;;;7.22;6.18;;;16.10;94.60;;;;;;6266738;22;19999;-94
2021/06/09 02:21:03;;;;;;;6.80;5.50;;;16.10;94.60;;;;;;6264591;22;20004;-93
2021/06/09 02:23:35;;;;;;;5.93;5.32;;;16.10;94.60;;;;;;6266853;22;20000;-94
2021/06/09 02:26:10;;;;;;;5.68;4.60;;;16.10;94.50;;;;;;6264094;22;20039;-93
2021/06/09 02:28:41;;;;;;;5.50;4.45;;;16.10;94.40;;;;;;6264016;22;19999;-94
2021/06/09 02:31:22;;;;;;;5.85;5.13;;;16.20;94.40;;;;;;6263738;22;20004;-94
2021/06/09 02:33:50;;;;;;;6.03;5.05;;;16.10;94.40;;;;;;6281198;22;20033;-93
2021/06/09 02:36:24;;;;;;;5.40;4.90;;;16.20;94.30;;;;;;6299922;22;20070;-94
2021/06/09 02:38:57;;;;;;;7.28;5.47;;;16.20;94.30;;;;;;6298235;22;20003;-93
2021/06/09 02:41:26;;;;;;;7.50;6.53;;;16.20;94.30;;;;;;6295372;22;20003;-93
2021/06/09 02:43:58;;;;;;;5.43;4.70;;;16.30;94.20;;;;;;6296681;22;19999;-93
2021/06/09 02:46:36;;;;;;;5.68;4.47;;;16.30;94.20;;;;;;6298517;22;20019;-93
2021/06/09 02:49:16;;;;;;;7.20;5.63;;;16.30;94.10;;;;;;6300006;22;19999;-93
2021/06/09 02:51:57;;;;;;;5.35;4.15;;;16.30;94.00;;;;;;6300480;22;20064;-93
2021/06/09 02:54:25;;;;;;;6.35;4.95;;;16.40;94.00;;;;;;6325445;22;20137;-93
2021/06/09 02:57:19;;;;;;;4.22;3.80;;;16.40;93.90;;;;;;6300185;22;19999;-93
2021/06/09 03:00:29;;;;;;;6.53;4.90;;;16.40;93.90;;;;;;6298014;22;20059;-93
2021/06/09 03:03:24;;;;;;;5.38;4.57;;;16.40;93.80;;;;;;6298869;22;20000;-93
2021/06/09 03:06:19;;;;;;;4.88;4.00;;;16.50;93.70;;;;;;6303280;22;20038;-93
2021/06/09 03:08:58;;;;;;;4.88;3.95;;;16.50;93.60;;;;;;6301838;22;20079;-93
2021/06/09 03:11:35;;;;;;;5.95;5.35;;;16.50;93.50;;;;;;6298255;22;20007;-93
2021/06/09 03:17:36;;;;;;;5.38;4.65;;;16.60;93.40;;;;;;6325953;22;20009;-93
2021/06/09 03:20:11;;;;;;;6.80;5.57;;;16.70;93.40;;;;;;6295936;22;19999;-94
2021/06/09 03:23:04;;;;;;;6.18;5.40;;;16.70;93.30;;;;;;6320550;22;19995;-94
2021/06/09 03:25:39;;;;;;;6.15;5.38;;;16.70;93.20;;;;;;6292397;22;20003;-93
2021/06/09 03:28:39;;;;;;;5.95;5.22;;;16.70;93.10;;;;;;6296084;22;20038;-93
2021/06/09 03:31:11;;;;;;;5.82;4.82;;;16.80;93.20;;;;;;6296264;22;20034;-95
2021/06/09 03:33:43;;;;;;;8.30;5.53;;;16.80;93.10;;;;;;6294721;22;20015;-94
2021/06/09 03:36:19;;;;;;;6.15;5.20;;;16.80;93.10;;;;;;6292846;22;19999;-94
2021/06/09 03:38:57;;;;;;;6.85;5.78;;;16.80;93.00;;;;;;6305298;22;19987;-94
2021/06/09 03:41:30;;;;;;;5.95;5.07;;;16.90;92.90;;;;;;6324868;22;20029;-93
2021/06/09 03:44:09;;;;;;;7.05;5.10;;;16.90;92.80;;;;;;6337005;22;20003;-94
2021/06/09 03:46:38;;;;;;;5.30;4.78;;;17.00;92.80;;;;;;6336330;22;20062;-94
2021/06/09 03:49:11;;;;;;;6.78;6.07;;;17.00;92.60;;;;;;6328159;22;19999;-93
2021/06/09 03:51:41;;;;;;;6.85;5.32;;;17.10;92.50;;;;;;6324432;22;20007;-94
2021/06/09 03:54:42;;;;;;;5.68;4.93;;;17.10;92.40;;;;;;6323240;22;20499;-94
2021/06/09 03:57:16;;;;;;;5.18;4.68;;;17.20;92.30;;;;;;6321807;22;19995;-94
2021/06/09 03:59:51;;;;;;;4.20;3.80;;;17.20;92.20;;;;;;6322899;22;20056;-93
2021/06/09 04:02:26;;;;;;;6.72;5.05;;;17.30;92.30;;;;;;6326636;22;20437;-93
2021/06/09 04:05:06;;;;;;;5.20;4.70;;;17.30;92.10;;;;;;6326325;22;19999;-93
2021/06/09 04:07:44;;;;;;;5.32;4.82;;;17.40;91.90;;;;;;6327684;22;20023;-93
2021/06/09 04:10:17;;;;;;;5.85;5.20;;;17.50;91.70;;;;;;6325552;22;20006;-94
2021/06/09 04:12:45;;;;;;;6.40;5.00;;;17.60;91.40;;;;;;6323553;22;20011;-94
2021/06/09 04:15:12;;;;;;;5.55;4.45;;;17.60;91.40;;;;;;6320856;22;20006;-95
2021/06/09 04:17:40;;;;;;;5.63;5.00;;;17.70;91.20;;;;;;6322444;22;19992;-94
2021/06/09 04:20:11;;;;;;;6.00;5.05;;;17.70;91.00;;;;;;6319362;22;20029;-94
2021/06/09 04:22:55;;;;;;;4.57;4.05;;;17.80;90.80;;;;;;6320501;22;20422;-94
2021/06/09 04:25:26;;;;;;;4.43;4.03;;;17.80;90.90;;;;;;6318726;22;20014;-94
2021/06/09 04:27:57;;;;;;;4.75;4.28;;;17.80;90.60;;;;;;6320095;22;20406;-94
2021/06/09 04:30:26;;;;;;;4.45;4.03;;;17.90;90.60;;;;;;6320407;22;20004;-94
2021/06/09 04:33:04;;;;;;;5.90;4.70;;;17.90;90.40;;;;;;6320394;22;20076;-95
2021/06/09 04:36:04;;;;;;;5.20;4.70;;;18.00;90.30;;;;;;6323015;22;20000;-95
2021/06/09 04:38:30;;;;;;;4.78;4.28;;;18.00;89.20;;;;;;6320783;22;20010;-94
2021/06/09 04:41:14;;;;;;;7.68;4.72;;;18.00;90.10;;;;;;6325912;22;20023;-95
2021/06/09 04:43:48;;;;;;;5.10;4.38;;;18.00;89.70;;;;;;6326654;22;20307;-95
2021/06/09 04:46:25;;;;;;;4.20;3.63;;;18.10;90.00;;;;;;6355165;22;19991;-94
2021/06/09 04:49:09;;;;;;;4.82;4.40;;;18.10;90.00;;;;;;6334981;22;19995;-95
2021/06/09 04:51:38;;;;;;;;;;;18.20;89.70;;;;;;6335430;22;20048;-94
2021/06/09 04:54:26;;;;;;;5.55;4.78;;;18.20;88.90;;;;;;6358463;22;19903;-94
2021/06/09 04:56:54;;;;;;;5.25;4.60;;;18.30;89.40;;;;;;6326481;22;20002;-95
2021/06/09 04:59:21;;;;;;;4.47;4.07;;;18.40;89.10;;;;;;6359108;22;19995;-94
2021/06/09 05:01:50;;;;;;;4.72;3.85;;;18.50;89.40;;;;;;6325326;22;20002;-94
2021/06/09 05:04:19;;;;;;;6.10;3.22;;;18.60;89.40;;;;;;6321741;22;19999;-94
2021/06/09 05:06:45;;;;;;;4.05;3.65;;;18.70;89.30;;;;;;6325621;22;20006;-95
2021/06/09 05:09:17;;;;;;;5.88;5.28;;;18.80;88.80;;;;;;6323877;22;20054;-94
2021/06/09 05:11:51;;;;;;;5.43;4.32;;;18.90;87.90;;;;;;6323113;22;20050;-95
2021/06/09 05:14:27;;;;;;;4.68;4.05;;;19.00;87.20;;;;;;6322768;22;20018;-94
2021/06/09 05:17:07;;;;;;;5.70;5.20;;;19.00;87.20;;;;;;6324111;22;19995;-95
2021/06/09 05:19:42;;;;;;;5.85;5.13;;;19.10;86.90;;;;;;6339890;22;19994;-95
2021/06/09 05:22:32;;;;;;;5.60;4.97;;;19.10;85.70;;;;;;6340189;22;19999;-94
2021/06/09 05:25:05;;;;;;;4.57;4.03;;;19.10;85.60;;;;;;6340535;22;19986;-94
2021/06/09 05:27:34;;;;;;;5.95;4.95;;;19.20;85.90;;;;;;6339481;22;19995;-95
2021/06/09 05:30:05;;;;;;;4.95;4.45;;;19.20;85.80;;;;;;6335640;22;20066;-95
2021/06/09 05:32:43;;;;;;;5.40;4.55;;;19.30;85.60;;;;;;6321110;22;20003;-95
2021/06/09 05:35:18;;;;;;;5.47;4.55;;;19.30;85.00;;;;;;6320278;22;20409;-95
2021/06/09 05:38:00;;;;;;;4.40;4.00;;;19.40;85.00;;;;;;6317060;22;20003;-95
2021/06/09 05:40:35;;;;;;;5.18;4.35;;;19.40;83.90;;;;;;6316724;22;20018;-95
2021/06/09 05:43:09;;;;;;;5.70;5.15;;;19.50;84.20;;;;;;6315436;22;20005;-94
2021/06/09 05:45:48;;;;;;;5.30;4.75;;;19.40;83.80;;;;;;6316623;22;20085;-95
2021/06/09 05:48:14;;;;;;;5.53;4.97;;;19.50;83.70;;;;;;6312207;22;19995;-94
2021/06/09 05:50:40;;;;;;;6.38;4.53;;;19.60;83.30;;;;;;6284082;22;20022;-95
2021/06/09 05:53:09;;;;;;;4.55;4.15;;;19.60;83.10;;;;;;6284494;22;20031;-95
2021/06/09 05:55:38;;;;;;;4.20;3.80;;;19.60;83.40;;;;;;6285103;22;20003;-94
2021/06/09 05:58:07;;;;;;;4.30;3.90;;;19.70;83.20;;;;;;6287208;22;19999;-96
2021/06/09 06:00:33;;;;;;;8.82;5.43;;;19.80;82.90;;;;;;6288526;22;19995;-94
2021/06/09 06:03:21;;;;;;;6.75;4.53;;;19.90;82.00;;;;;;6295820;22;20000;-94
2021/06/09 06:05:53;;;;;;;4.32;3.92;;;19.90;81.70;;;;;;6278670;22;20030;-93
2021/06/09 06:08:25;;;;;;;5.85;4.93;;;19.90;82.50;;;;;;6296029;22;20494;-95
2021/06/09 06:11:01;;;;;;;4.97;4.47;;;20.00;82.10;;;;;;6296480;22;20090;-94
2021/06/09 06:13:30;;;;;;;4.50;4.10;;;20.00;81.40;;;;;;6294593;22;20030;-94
2021/06/09 06:16:02;;;;;;;5.38;4.88;;;20.10;81.50;;;;;;6292444;22;20063;-94
2021/06/09 06:19:00;;;;;;;4.35;3.95;;;20.10;81.00;;;;;;6319157;22;19993;-94
2021/06/09 06:22:07;;;;;;;4.88;4.07;;;20.10;79.40;;;;;;6302682;22;20007;-93
2021/06/09 06:24:40;;;;;;;4.90;4.50;;;20.20;80.40;;;;;;6307420;22;19999;-95
2021/06/09 06:27:41;;;;;;;5.10;4.60;;;20.30;80.20;;;;;;6303125;22;20033;-94
2021/06/09 06:30:38;;;;;;;4.63;4.15;;;20.40;80.10;;;;;;6330508;22;20010;-93
2021/06/09 06:33:26;;;;;;;4.60;4.20;;;20.50;78.60;;;;;;6300417;22;20018;-94
2021/06/09 06:36:43;;;;;;;4.50;3.85;;;20.50;78.80;;;;;;6302617;22;20006;-94
2021/06/09 06:39:29;;;;;;;4.32;3.92;;;20.70;78.40;;;;;;6318043;22;20015;-96
2021/06/09 06:42:15;;;;;;;4.93;3.78;;;20.70;76.80;;;;;;6275249;22;20439;-95
2021/06/09 06:45:00;;;;;;;;;;;;;;;;;;;;;
2021/06/09 06:50:43;;;;;;;;;;;;;;;;;;;;;
2021/06/09 06:53:28;;;;;;;4.50;3.80;;;21.00;75.20;;;;;;6305891;22;20007;-94
2021/06/09 06:55:58;;;;;;;4.07;3.67;;;21.00;75.00;;;;;;6303169;22;19995;-95
2021/06/09 06:58:33;;;;;;;4.80;3.58;;;21.00;75.30;;;;;;6298897;22;20051;-93
2021/06/09 07:01:08;;;;;;;3.70;3.40;;;21.10;75.20;;;;;;6293695;22;20024;-94
2021/06/09 07:03:47;;;;;;;4.20;3.80;;;21.30;75.80;;;;;;6302667;22;20000;-94
2021/06/09 07:06:25;;;;;;;3.53;3.22;;;21.40;75.20;;;;;;6301809;22;20009;-93
2021/06/09 07:09:03;;;;;;;4.65;3.47;;;21.50;74.00;;;;;;6300589;22;19999;-94
2021/06/09 07:11:50;;;;;;;5.25;4.22;;;21.50;73.60;;;;;;6301463;22;20063;-95
2021/06/09 07:14:35;;;;;;;3.95;3.55;;;21.60;70.70;;;;;;6328037;22;20115;-94
2021/06/09 07:17:11;;;;;;;3.83;3.53;;;21.70;71.50;;;;;;6301344;22;19996;-93
2021/06/09 07:19:46;;;;;;;4.57;2.90;;;21.80;69.60;;;;;;6297219;22;19999;-93
2021/06/09 07:22:20;;;;;;;3.83;3.17;;;21.80;71.60;;;;;;6291226;22;20000;-95
2021/06/09 07:24:53;;;;;;;3.90;3.28;;;21.90;69.60;;;;;;6297416;22;20003;-93
2021/06/09 07:27:23;;;;;;;3.80;3.50;;;22.00;69.90;;;;;;6303717;22;19999;-93
2021/06/09 07:29:54;;;;;;;2.88;2.65;;;22.00;68.80;;;;;;6307681;22;20062;-93
2021/06/09 07:32:21;;;;;;;6.80;6.10;;;22.00;69.90;;;;;;6308095;22;20015;-93
2021/06/09 07:34:49;;;;;;;4.18;3.78;;;22.10;69.20;;;;;;6309983;22;19995;-92
2021/06/09 07:37:30;;;;;;;3.88;3.28;;;22.20;68.80;;;;;;6302635;22;19995;-93
2021/06/09 07:40:00;;;;;;;3.65;3.35;;;22.30;69.10;;;;;;6294200;22;20000;-94
2021/06/09 07:42:28;;;;;;;3.92;2.95;;;22.30;68.40;;;;;;6290725;22;20022;-93
2021/06/09 07:45:12;;;;;;;3.70;3.40;;;22.40;68.20;;;;;;6292703;22;19999;-94
2021/06/09 07:47:42;;;;;;;3.30;3.03;;;22.30;68.00;;;;;;6290429;22;20017;-94
2021/06/09 07:50:13;;;;;;;3.65;3.30;;;22.30;67.70;;;;;;6289052;22;19999;-94
2021/06/09 07:53:07;;;;;;;4.03;3.60;;;22.30;67.60;;;;;;6292418;22;20015;-93
2021/06/09 07:55:50;;;;;;;2.80;2.60;;;22.30;67.00;;;;;;6302706;22;19995;-94
2021/06/09 07:58:36;;;;;;;4.20;3.80;;;22.40;68.30;;;;;;6301783;22;20010;-94
2021/06/09 08:01:07;;;;;;;4.20;3.50;;;22.50;66.90;;;;;;6303303;22;20007;-94
2021/06/09 08:04:08;;;;;;;4.13;3.72;;;22.50;66.50;;;;;;6300245;22;20079;-95
2021/06/09 08:07:08;;;;;;;3.67;3.28;;;22.40;66.60;;;;;;6305991;22;20058;-94
2021/06/09 08:09:42;;;;;;;3.58;3.13;;;22.40;67.20;;;;;;6282291;22;20434;-94
2021/06/09 08:12:17;;;;;;;4.40;3.35;;;22.50;67.20;;;;;;6298105;22;20007;-93
2021/06/09 08:14:51;;;;;;;3.15;2.88;;;22.60;66.80;;;;;;6298603;22;20063;-93
2021/06/09 08:21:09;;;;;;;3.60;3.30;;;22.90;65.60;;;;;;6313038;22;20067;-92
2021/06/09 08:23:37;;;;;;;3.30;3.00;;;23.00;64.70;;;;;;6299598;22;19999;-93
2021/06/09 08:26:27;;;;;;;;;;;;;;;;;;;;;
2021/06/09 08:29:07;;;;;;;;;;;;;;;;;;;;;
2021/06/09 08:31:57;;;;;;;;;;;;;;;;;;;;;
2021/06/09 08:34:26;;;;;;;3.40;3.00;;;23.00;64.80;;;;;;6313432;22;20052;-95
2021/06/09 08:37:30;;;;;;;;;;;;;;;;;;;;;
2021/06/09 08:40:37;;;;;;;;;;;;;;;;;;;;;
2021/06/09 08:47:25;;;;;;;;;;;;;;;;;;;;;
2021/06/09 08:50:18;;;;;;;3.20;2.90;;;23.20;63.30;;;;;;6189728;22;20002;-93
2021/06/09 08:53:43;;;;;;;3.58;3.28;;;23.30;64.70;;;;;;6322632;22;20030;-94
2021/06/09 09:00:32;;;;;;;3.72;3.40;;;23.20;63.00;;;;;;6177369;23;20025;-95
2021/06/09 09:03:33;;;;;;;3.05;2.53;;;23.20;64.20;;;;;;6137629;23;20010;-94
2021/06/09 09:06:25;;;;;;;3.17;2.90;;;23.20;63.30;;;;;;6168598;23;20020;-94
2021/06/09 09:09:25;;;;;;;2.80;2.60;;;23.30;64.00;;;;;;6159492;23;20001;-93
2021/06/09 09:19:35;;;;;;;3.30;3.00;;;23.60;62.70;;;;;;6038074;23;20522;-96
2021/06/09 09:23:01;;;;;;;2.70;2.50;;;23.60;61.90;;;;;;5993087;24;20076;-95
2021/06/09 09:26:28;;;;;;;;;;;;;;;;;;;;;
2021/06/09 09:29:47;;;;;;;3.03;2.72;;;23.80;61.70;;;;;;6047695;23;20011;-94
2021/06/09 09:32:53;;;;;;;3.38;3.08;;;23.80;61.50;;;;;;6004919;23;20028;-95
2021/06/09 09:36:12;;;;;;;3.90;2.80;;;23.90;61.10;;;;;;6010463;23;20020;-94
2021/06/09 09:38:48;;;;;;;2.50;2.30;;;24.00;61.40;;;;;;6007472;23;19999;-93
2021/06/09 09:42:03;;;;;;;;;;;;;;;;;;;;;
2021/06/09 09:44:40;;;;;;;;;;;;;;;;;;;;;
2021/06/09 09:47:25;;;;;;;2.88;2.60;;;24.00;60.50;;;;;;6204567;23;20009;-93
2021/06/09 09:54:21;;;;;;;;;;;;;;;;;;;;;
2021/06/09 10:06:47;;;;;;;2.90;2.47;;;24.20;58.70;;;;;;6049953;23;20035;-95
2021/06/09 10:10:26;;;;;;;2.53;2.33;;;24.30;58.50;;;;;;6161648;23;20009;-95
2021/06/09 10:13:14;;;;;;;2.53;2.33;;;24.30;58.20;;;;;;6186275;23;20092;-95
2021/06/09 10:15:48;;;;;;;2.65;2.28;;;24.40;57.60;;;;;;6201575;23;20004;-94
2021/06/09 10:29:12;;;;;;;2.65;2.45;;;24.60;56.90;;;;;;6129892;23;20012;-96
2021/06/09 10:39:24;;;;;;;;;;;;;;;;;;;;;
2021/06/09 10:43:12;;;;;;;;;;;;;;;;;;;;;
2021/06/09 10:46:36;;;;;;;;;;;;;;;;;;;;;
2021/06/09 11:03:41;;;;;;;;;;;;;;;;;;;;;
2021/06/09 11:06:24;;;;;;;3.22;2.92;;;25.20;56.20;;;;;;5946188;24;20051;-92
2021/06/09 11:09:54;;;;;;;;;;;;;;;;;;;;;
2021/06/09 11:17:37;;;;;;;;;;;;;;;;;;;;;
2021/06/09 11:27:54;;;;;;;3.60;3.08;;;25.50;56.40;;;;;;5852512;24;20017;-95
2021/06/09 11:34:34;;;;;;;4.93;2.55;;;25.20;56.20;;;;;;5873069;24;20067;-95
2021/06/09 11:38:00;;;;;;;;;;;;;;;;;;;;;
2021/06/09 11:44:09;;;;;;;2.78;2.58;;;25.00;51.30;;;;;;6000191;24;20042;-94
2021/06/09 11:47:16;;;;;;;6.75;2.83;;;24.90;53.30;;;;;;6109836;23;20029;-92
2021/06/09 11:54:37;;;;;;;;;;;;;;;;;;;;;
2021/06/09 12:41:40;;;;;;;3.20;2.63;;;29.00;47.30;;;;;;5987382;24;20102;-92
2021/06/09 12:48:21;;;;;;;2.60;2.40;;;30.30;47.40;;;;;;6008053;23;20068;-93
2021/06/09 12:58:02;;;;;;;;;;;;;;;;;;;;;
2021/06/09 13:01:27;;;;;;;2.67;2.47;;;30.80;45.40;;;;;;6144311;23;20116;-92
2021/06/09 13:04:43;;;;;;;;;;;;;;;;;;;;;
2021/06/09 13:58:05;;;;;;;3.08;2.78;;;31.80;46.40;;;;;;6313878;22;20026;-92
2021/06/09 14:00:43;;;;;;;2.40;2.30;;;32.20;43.50;;;;;;6319148;22;20004;-96
2021/06/09 14:10:31;;;;;;;3.53;2.47;;;32.80;41.10;;;;;;6071149;23;20034;-94
2021/06/09 14:13:33;;;;;;;;;;;;;;;;;;;;;
2021/06/09 14:16:23;;;;;;;;;;;;;;;;;;;;;
2021/06/09 14:19:18;;;;;;;4.13;2.45;;;34.30;42.50;;;;;;6066944;23;20089;-95
2021/06/09 14:22:02;;;;;;;4.40;2.58;;;34.90;42.00;;;;;;6070671;23;20023;-91
2021/06/09 14:24:34;;;;;;;2.47;2.28;;;35.20;41.00;;;;;;6157779;23;20072;-92
2021/06/09 14:27:10;;;;;;;2.95;2.60;;;35.40;41.50;;;;;;6169855;22;20000;-93
2021/06/09 14:29:39;;;;;;;2.50;2.30;;;35.80;40.10;;;;;;6314294;22;20003;-91
2021/06/09 14:32:22;;;;;;;;;;;;;;;;;;;;;
2021/06/09 15:08:00;;;;;;;8.68;6.47;;;35.80;37.80;;;;;;6330556;22;20034;-93
2021/06/09 15:10:49;;;;;;;23.25;15.10;;;34.70;38.30;;;;;;6292888;22;19996;-92
2021/06/09 15:13:18;;;;;;;24.95;15.90;;;33.60;39.50;;;;;;6258788;22;20008;-91
2021/06/09 15:15:45;;;;;;;19.33;14.15;;;32.50;40.60;;;;;;6283471;22;19999;-90
2021/06/09 15:18:17;;;;;;;30.65;18.42;;;31.40;41.60;;;;;;6309245;22;20302;-89
2021/06/09 15:20:46;;;;;;;30.35;19.25;;;30.50;42.90;;;;;;6280130;22;20003;-91
2021/06/09 15:23:18;;;;;;;31.98;18.13;;;29.80;43.60;;;;;;6288288;22;19996;-92
2021/06/09 15:25:49;;;;;;;13.85;10.07;;;29.30;44.30;;;;;;6285765;22;19996;-94
2021/06/09 15:28:17;;;;;;;20.60;12.93;;;28.90;44.40;;;;;;6260510;22;20012;-92
2021/06/09 15:30:46;;;;;;;9.48;6.43;;;28.60;44.80;;;;;;6286052;22;20080;-92
2021/06/09 15:33:13;;;;;;;5.28;3.85;;;28.40;44.90;;;;;;6283164;22;20045;-91
2021/06/09 15:35:43;;;;;;;5.90;3.55;;;28.00;45.00;;;;;;6257539;22;20071;-90
2021/06/09 15:38:11;;;;;;;3.38;3.08;;;27.50;45.80;;;;;;6309470;22;20006;-86
2021/06/09 15:40:53;;;;;;;7.13;2.80;;;26.80;51.50;;;;;;6282920;22;19995;-86
2021/06/09 15:50:46;;;;;;;2.78;2.50;;;23.00;74.10;;;;;;6161418;23;20464;-87
2021/06/09 15:53:54;;;;;;;;;;;;;;;;;;;;;
2021/06/09 16:00:56;;;;;;;;;;;;;;;;;;;;;
2021/06/09 17:43:11;;;;;;;;;;;;;;;;;;;;;
2021/06/09 17:54:41;;;;;;;5.13;4.57;;;21.00;75.20;;;;;;6298557;22;20030;-88
2021/06/09 17:57:12;;;;;;;4.45;4.05;;;21.00;76.10;;;;;;6274900;22;20080;-88
2021/06/09 17:59:47;;;;;;;7.05;4.68;;;20.90;76.20;;;;;;6305903;22;20065;-88
2021/06/09 18:05:55;;;;;;;;;;;;;;;;;;;;;
2021/06/09 18:08:28;;;;;;;4.57;4.00;;;20.70;76.90;;;;;;6312159;22;20034;-93
2021/06/09 18:11:02;;;;;;;4.67;4.23;;;20.70;77.80;;;;;;6256593;22;20023;-95
2021/06/09 18:14:19;;;;;;;5.28;4.25;;;20.70;77.60;;;;;;6255545;22;20056;-95
2021/06/09 18:17:08;;;;;;;5.18;4.68;;;20.70;77.60;;;;;;6303918;22;20015;-94
2021/06/09 18:20:05;;;;;;;5.18;4.68;;;20.60;77.30;;;;;;6283148;22;20085;-94
2021/06/09 18:22:33;;;;;;;5.28;4.78;;;20.60;77.70;;;;;;6285101;22;20107;-94
2021/06/09 18:25:43;;;;;;;5.75;5.15;;;20.60;77.50;;;;;;6282947;22;20437;-95
2021/06/09 18:29:32;;;;;;;6.57;5.22;;;20.50;76.00;;;;;;6291559;22;19987;-94
2021/06/09 18:31:42;;;;;;;6.35;5.75;;;20.50;76.20;;;;;;6298000;22;20003;-95
2021/06/09 18:34:18;;;;;;;;;;;;;;;;;;;;;
2021/06/09 18:37:08;;;;;;;;;;;;;;;;;;;;;
2021/06/09 18:43:06;;;;;;;7.85;6.85;;;20.40;77.90;;;;;;6221852;23;20360;-94
2021/06/09 18:45:55;;;;;;;;;;;;;;;;;;;;;
2021/06/09 18:48:50;;;;;;;7.53;6.88;;;20.40;76.70;;;;;;6297517;22;20035;-94
2021/06/09 18:51:27;;;;;;;;;;;;;;;;;;;;;
2021/06/09 18:54:08;;;;;;;;;;;;;;;;;;;;;
2021/06/09 18:57:24;;;;;;;;;;;;;;;;;;;;;
2021/06/09 19:00:21;;;;;;;;;;;;;;;;;;;;;
2021/06/09 19:09:20;;;;;;;7.93;7.15;;;20.30;79.60;;;;;;6294068;22;20003;-94
2021/06/09 19:11:49;;;;;;;8.82;6.32;;;20.20;80.10;;;;;;6288486;22;20322;-93
2021/06/09 19:17:28;;;;;;;8.73;7.85;;;20.10;80.90;;;;;;6295832;22;20306;-95
2021/06/09 19:20:07;;;;;;;7.88;6.90;;;20.10;81.30;;;;;;6290327;22;20102;-94
2021/06/09 19:22:35;;;;;;;10.38;6.50;;;20.10;82.00;;;;;;6287382;22;19999;-94
2021/06/09 19:25:07;;;;;;;7.00;6.30;;;20.10;82.30;;;;;;6288142;22;20000;-95
2021/06/09 19:27:41;;;;;;;8.07;5.40;;;20.00;82.60;;;;;;6290813;22;19995;-94
2021/06/09 19:30:15;;;;;;;7.30;6.13;;;20.00;82.80;;;;;;6313173;22;20005;-94
2021/06/09 19:32:41;;;;;;;;;;;20.00;83.10;;;;;;6299587;22;20003;-94
2021/06/09 19:35:18;;;;;;;5.95;5.35;;;19.90;83.20;;;;;;6331825;22;19897;-93
2021/06/09 19:38:14;;;;;;;;;;;;;;;;;;;;;
2021/06/09 19:41:18;;;;;;;;;;;;;;;;;;;;;
2021/06/09 19:43:53;;;;;;;6.05;5.43;;;19.70;84.20;;;;;;6335239;22;19987;-92
2021/06/09 19:46:32;;;;;;;5.43;4.93;;;19.70;84.80;;;;;;6297813;22;20003;-93
2021/06/09 19:49:15;;;;;;;4.90;4.40;;;19.60;85.10;;;;;;6299883;22;20007;-93
2021/06/09 19:51:44;;;;;;;5.38;4.22;;;19.50;85.30;;;;;;6297953;22;20003;-93
2021/06/09 19:54:10;;;;;;;4.18;3.78;;;19.50;85.60;;;;;;6293327;22;20003;-93
2021/06/09 19:56:46;;;;;;;4.95;3.92;;;19.50;85.70;;;;;;6290545;22;20019;-93
2021/06/09 19:59:25;;;;;;;;;;;;;;;;;;;;;
2021/06/09 20:01:56;;;;;;;3.70;3.40;;;19.30;86.10;;;;;;6319197;22;20023;-94
2021/06/09 20:04:24;;;;;;;4.45;3.60;;;19.30;86.40;;;;;;6283385;22;20039;-94
2021/06/09 20:06:50;;;;;;;4.10;3.50;;;19.40;86.60;;;;;;6282187;22;20007;-93
2021/06/09 20:09:17;;;;;;;3.65;3.13;;;19.50;86.70;;;;;;6282773;22;20395;-94
2021/06/09 20:11:49;;;;;;;4.13;3.42;;;19.50;86.50;;;;;;6281865;22;19999;-93
2021/06/09 20:14:27;;;;;;;;;;;;;;;;;;;;;
2021/06/09 20:16:56;;;;;;;4.63;3.30;;;19.60;86.10;;;;;;6309199;22;20087;-94
2021/06/09 20:19:25;;;;;;;3.35;3.05;;;19.60;86.20;;;;;;6282193;22;20307;-94
2021/06/09 20:22:03;;;;;;;;;;;;;;;;;;;;;
2021/06/09 20:24:32;;;;;;;3.08;2.78;;;19.50;86.20;;;;;;6309332;22;20082;-93
2021/06/09 20:29:51;;;;;;;3.72;3.10;;;19.50;86.30;;;;;;6310339;22;20056;-94
2021/06/09 20:32:27;;;;;;;;;;;19.50;86.50;;;;;;6284190;22;20007;-94
2021/06/09 20:34:55;;;;;;;4.55;2.80;;;19.40;85.50;;;;;;6283815;22;19945;-93
2021/06/09 20:37:32;;;;;;;3.15;2.85;;;19.30;86.10;;;;;;6285669;22;20050;-93
2021/06/09 20:40:09;;;;;;;2.80;2.60;;;19.20;86.00;;;;;;6286352;22;19999;-92
2021/06/09 20:42:38;;;;;;;2.92;2.63;;;19.10;86.00;;;;;;6284921;22;20034;-93
2021/06/09 20:45:18;;;;;;;2.53;2.33;;;19.00;86.30;;;;;;6285500;22;20729;-93
2021/06/09 20:47:57;;;;;;;;;;;;;;;;;;;;;
2021/06/09 20:50:25;;;;;;;2.97;2.67;;;18.80;86.90;;;;;;6313902;22;20082;-93
2021/06/09 20:52:54;;;;;;;2.90;2.53;;;18.80;87.20;;;;;;6285776;22;20029;-93
2021/06/09 20:55:22;;;;;;;2.58;2.38;;;18.70;87.40;;;;;;6283875;22;20003;-93
2021/06/09 20:57:54;;;;;;;3.28;2.97;;;18.60;87.60;;;;;;6283618;22;19995;-93
2021/06/09 21:00:30;;;;;;;2.50;2.30;;;18.50;87.80;;;;;;6309746;22;20000;-93
2021/06/09 21:03:18;;;;;;;8.00;3.00;;;18.50;88.10;;;;;;6289414;22;20074;-94
2021/06/09 21:05:56;;;;;;;2.95;2.65;;;18.40;88.20;;;;;;6290678;22;20007;-92
2021/06/09 21:08:27;;;;;;;3.50;3.20;;;18.40;88.40;;;;;;6287978;22;20422;-93